Terminal Aerodrome Forecast
Issued by NWS

Home | Current Version | Previous Version | Graphics & Text | Print | Product List | Glossary On
Versions: 1 2 3 4 5 6 7 8 9 10 11 12 13 14 15 16 17
000
FTUS43 KICT 311100
TAFSLN
TAF
KSLN 311134Z 3112/0112 17009KT P6SM VCTS SCT080CB BKN120
     FM311600 18024G33KT P6SM SCT100 BKN250
     FM010200 17013KT P6SM VCTS SCT070CB BKN100
     FM011000 03009KT 5SM BR SCT020=

USA.gov is the U.S. government's official web portal to all federal, state and local government web resources and services.